Cartoogechaye, North Carolina
Current Conditions -  °F | °C
As of 2:15 AM on Saturday 20 Dec 2014 (Local Time) from KRHP Reporting Station
Drizzle Drizzle  
Wind Chill: 38°   Ceiling: 6500
Heat Index: 38°   Visibility: 10mi
Dew Point: 34°   Wind: 0mph
Humidity: 86%   Direction: NA
Pressure: 30.14"   Gusts: NA
Location:  35.1737°N, 83.4215°W
Report Text: KRHP 200715Z AUTO 00000KT 10SM -DZ BKN065 OVC080 03/01 A3014 RMK AO2 T00330012
Loading
Personal Weather Stations






























Interactive Weather Map New forecast layout! Learn more

10-Day Weather Forecast

Advertisements
Track Severe Weather on mobile